Time;durP1;ratioP1;P1;durP2;ratioP2;P2;SDS_P1;SDS_P2;PMS_P1;PMS_P2;Temp;Humidity;BMP_temperature;BMP_pressure;BME280_temperature;BME280_humidity;BME280_pressure;Samples;Min_cycle;Max_cycle;Signal;HPM_P1;HPM_P2
2023/10/12 00:04:11;;;;;;;10.80;5.15;;;;;;;18.33;100.00;99931.00;5054941;56;1141498;-74
2023/10/12 00:09:20;;;;;;;15.85;4.12;;;;;;;18.26;100.00;99918.00;4979544;57;1140739;-74
2023/10/12 00:14:32;;;;;;;10.03;4.90;;;;;;;18.34;100.00;99919.75;4960102;58;1140755;-74
2023/10/12 00:19:38;;;;;;;13.67;4.70;;;;;;;18.33;100.00;99917.61;5042961;56;1140976;-74
2023/10/12 00:24:44;;;;;;;7.73;4.00;;;;;;;18.31;100.00;99907.59;5106851;56;1140897;-73
2023/10/12 00:29:51;;;;;;;10.78;4.17;;;;;;;18.27;100.00;99906.28;5126865;56;1138729;-74
2023/10/12 00:34:58;;;;;;;16.30;4.90;;;;;;;18.28;100.00;99900.75;5094241;56;1140876;-74
2023/10/12 00:40:55;;;;;;;10.63;4.28;;;;;;;18.28;100.00;99899.91;5039615;56;1140862;-74
2023/10/12 00:45:19;;;;;;;12.93;4.30;;;;;;;18.27;100.00;99896.41;5050868;56;1141198;-74
2023/10/12 00:50:19;;;;;;;19.12;5.00;;;;;;;18.28;100.00;99886.03;5089550;56;1141227;-74
2023/10/12 00:55:35;;;;;;;9.30;4.45;;;;;;;18.32;100.00;99881.14;5072256;56;1141078;-74
2023/10/12 01:00:51;;;;;;;9.78;4.05;;;;;;;18.35;100.00;99878.58;5034511;56;1138865;-75
2023/10/12 01:05:53;;;;;;;14.67;4.23;;;;;;;18.38;100.00;99869.67;5079060;56;1138667;-74
2023/10/12 01:10:57;;;;;;;14.78;5.03;;;;;;;18.43;100.00;99873.98;5051442;56;1140844;-74
2023/10/12 01:16:02;;;;;;;19.12;4.35;;;;;;;18.45;100.00;99867.10;5049298;56;1140978;-74
2023/10/12 01:21:11;;;;;;;16.73;4.62;;;;;;;18.47;100.00;99863.23;5020126;56;1140934;-74
2023/10/12 01:26:13;;;;;;;10.48;4.50;;;;;;;18.50;100.00;99856.13;5020044;57;1140932;-74
2023/10/12 01:31:27;;;;;;;16.17;4.33;;;;;;;18.55;100.00;99854.25;5039687;56;1141039;-74
2023/10/12 01:36:32;;;;;;;14.23;4.97;;;;;;;18.57;100.00;99855.73;5019423;56;1140700;-74
2023/10/12 01:41:35;;;;;;;16.87;4.85;;;;;;;18.56;100.00;99850.05;5064482;56;1140754;-75
2023/10/12 01:46:42;;;;;;;9.80;4.37;;;;;;;18.56;100.00;99852.72;5070668;55;1141058;-74
2023/10/12 01:51:48;;;;;;;14.38;4.53;;;;;;;18.56;100.00;99863.44;5054676;56;1138624;-74
2023/10/12 01:56:55;;;;;;;12.23;4.40;;;;;;;18.57;100.00;99848.20;5115847;56;1140892;-74
2023/10/12 02:02:14;;;;;;;14.00;4.47;;;;;;;18.56;100.00;99853.23;5055019;57;1140927;-74
2023/10/12 02:07:10;;;;;;;12.23;4.90;;;;;;;18.54;100.00;99846.72;5028976;57;1140969;-74
2023/10/12 02:12:16;;;;;;;7.43;3.43;;;;;;;18.54;100.00;99843.20;4972034;57;1140646;-74
2023/10/12 02:17:25;;;;;;;11.25;4.10;;;;;;;18.53;100.00;99842.38;5025101;56;1138788;-74
2023/10/12 02:22:30;;;;;;;13.32;4.40;;;;;;;18.53;100.00;99841.04;5104329;56;1140961;-74
2023/10/12 02:27:41;;;;;;;11.08;4.00;;;;;;;18.55;100.00;99845.70;4943241;58;1140953;-75
2023/10/12 02:32:48;;;;;;;13.83;4.33;;;;;;;18.53;100.00;99842.38;5120179;56;1140913;-75
2023/10/12 02:37:50;;;;;;;19.32;4.78;;;;;;;18.50;100.00;99851.28;5025404;56;1140925;-74
2023/10/12 02:42:57;;;;;;;15.63;4.73;;;;;;;18.50;100.00;99852.62;4970945;57;1140773;-74
2023/10/12 02:48:05;;;;;;;13.53;4.60;;;;;;;18.49;100.00;99854.98;5034802;57;1140637;-74
2023/10/12 02:53:12;;;;;;;19.03;4.67;;;;;;;18.48;100.00;99846.66;5051312;57;1141275;-74
2023/10/12 02:58:20;;;;;;;17.48;5.22;;;;;;;18.47;100.00;99851.17;5029788;57;1140979;-74
2023/10/12 03:03:31;;;;;;;13.03;4.72;;;;;;;18.45;100.00;99845.17;4948841;58;1141107;-74
2023/10/12 03:08:46;;;;;;;11.30;5.10;;;;;;;18.43;100.00;99839.67;4961781;58;1141196;-74
2023/10/12 03:13:54;;;;;;;16.90;5.08;;;;;;;18.41;100.00;99821.62;4912149;58;1140570;-74
2023/10/12 03:19:16;;;;;;;13.65;4.10;;;;;;;18.37;100.00;99818.48;5017206;57;1140768;-74
2023/10/12 03:24:02;;;;;;;9.58;4.42;;;;;;;18.35;100.00;99824.53;5032064;57;1140793;-74
2023/10/12 03:29:18;;;;;;;15.33;4.50;;;;;;;18.34;100.00;99832.73;5061947;57;1138823;-74
2023/10/12 03:34:29;;;;;;;12.03;3.87;;;;;;;18.35;100.00;99817.83;5011824;57;1140963;-74
2023/10/12 04:05:35;;;;;;;8.33;3.60;;;;;;;18.39;100.00;99845.91;4957983;56;1140927;-74
2023/10/12 04:21:22;;;;;;;11.50;4.80;;;;;;;18.53;100.00;99865.14;5018765;57;1140988;-75
2023/10/12 04:31:34;;;;;;;15.60;4.25;;;;;;;18.46;100.00;99870.94;5015691;57;1140826;-74
2023/10/12 04:46:59;;;;;;;10.25;3.95;;;;;;;18.36;100.00;99881.58;5014719;56;1141040;-74
2023/10/12 04:52:17;;;;;;;9.08;4.58;;;;;;;18.33;100.00;99886.82;4886975;58;1140934;-74
2023/10/12 04:57:26;;;;;;;20.03;4.73;;;;;;;18.31;100.00;99890.19;4877456;57;1138824;-75
2023/10/12 05:02:30;;;;;;;10.93;4.33;;;;;;;18.25;100.00;99904.30;5063010;57;1140717;-75
2023/10/12 05:07:53;;;;;;;14.93;3.80;;;;;;;18.17;100.00;99931.16;4997652;56;1140750;-74
2023/10/12 05:12:43;;;;;;;10.00;3.34;;;;;;;17.91;100.00;99945.75;4970167;56;1140609;-74
2023/10/12 05:17:49;;;;;;;3.40;1.57;;;;;;;17.57;100.00;99943.47;4961446;57;1141166;-74
2023/10/12 05:22:54;;;;;;;2.50;1.32;;;;;;;17.27;100.00;99953.69;4923320;58;1138876;-74
2023/10/12 05:28:14;;;;;;;4.43;0.80;;;;;;;17.08;100.00;99967.51;4937102;58;1138813;-74
2023/10/12 05:33:37;;;;;;;1.50;1.20;;;;;;;16.88;100.00;99972.42;5030599;57;1139005;-74
2023/10/12 05:38:34;;;;;;;3.80;1.57;;;;;;;16.66;100.00;99978.49;4975313;57;1138703;-74
2023/10/12 05:43:37;;;;;;;2.73;1.80;;;;;;;16.49;100.00;99969.19;4976216;57;1139040;-75
2023/10/12 05:48:52;;;;;;;2.60;1.20;;;;;;;16.37;100.00;99962.52;5015542;57;1139010;-75
2023/10/12 05:54:01;;;;;;;4.67;1.70;;;;;;;16.32;100.00;99948.87;4910903;57;1138843;-75
2023/10/12 05:59:12;;;;;;;4.33;2.40;;;;;;;16.30;100.00;99987.39;4991597;57;1138800;-73
2023/10/12 06:04:20;;;;;;;5.13;2.10;;;;;;;16.24;100.00;99985.39;5052568;56;1138560;-73
2023/10/12 06:09:26;;;;;;;5.03;2.57;;;;;;;16.16;100.00;100005.76;5055936;57;1138931;-73
2023/10/12 06:14:32;;;;;;;3.47;2.53;;;;;;;16.07;100.00;100032.58;5011756;57;1140871;-74
2023/10/12 06:19:38;;;;;;;6.97;2.37;;;;;;;16.07;100.00;100032.58;4990805;57;1140887;-74
2023/10/12 06:24:44;;;;;;;3.97;2.43;;;;;;;16.08;100.00;100045.75;4972812;57;1140729;-73
2023/10/12 06:29:53;;;;;;;6.77;2.47;;;;;;;16.04;100.00;100059.61;4881757;58;1140744;-73
2023/10/12 06:45:31;;;;;;;10.57;3.60;;;;;;;15.88;100.00;100051.59;5011836;56;1140853;-74
2023/10/12 06:50:39;;;;;;;8.10;3.73;;;;;;;15.80;100.00;100045.73;4992628;57;1142803;-75
2023/10/12 06:55:56;;;;;;;27.00;4.47;;;;;;;15.72;100.00;100060.39;5091709;56;1140848;-74
2023/10/12 07:01:18;;;;;;;8.70;3.97;;;;;;;15.66;100.00;100059.20;5103950;56;1142970;-74
2023/10/12 07:06:14;;;;;;;16.43;3.87;;;;;;;15.68;100.00;100070.53;5095005;56;1140587;-74
2023/10/12 07:11:21;;;;;;;10.97;4.83;;;;;;;15.75;100.00;100046.70;5034132;56;1142812;-74
2023/10/12 07:16:23;;;;;;;14.43;4.40;;;;;;;15.80;100.00;100032.39;5046482;56;1142998;-73
2023/10/12 07:21:28;;;;;;;11.00;4.87;;;;;;;15.80;100.00;100075.06;5094241;56;1142831;-74
2023/10/12 07:26:35;;;;;;;12.33;5.23;;;;;;;15.78;100.00;100095.22;5074188;56;1142799;-74
2023/10/12 07:31:48;;;;;;;16.13;5.63;;;;;;;15.76;100.00;100118.54;5034901;57;1143085;-74
2023/10/12 07:36:57;;;;;;;17.70;6.00;;;;;;;15.74;100.00;100131.69;5079246;56;1142980;-73
2023/10/12 07:42:01;;;;;;;20.87;6.07;;;;;;;15.72;100.00;100138.55;5139897;56;1142864;-74
2023/10/12 07:57:37;;;;;;;17.63;5.20;;;;;;;15.66;100.00;100152.50;5073947;56;1143074;-73
2023/10/12 08:13:15;;;;;;;9.33;4.20;;;;;;;15.58;100.00;100156.48;5125916;56;1142825;-74
2023/10/12 08:24:09;;;;;;;15.20;5.03;;;;;;;15.55;100.00;100184.78;5058397;56;1140977;-74
2023/10/12 08:40:04;;;;;;;9.50;3.80;;;;;;;15.48;100.00;100181.88;5126880;56;1143018;-74
2023/10/12 08:45:15;;;;;;;11.73;4.27;;;;;;;15.49;100.00;100199.54;5051807;56;1225300;-74
2023/10/12 08:55:24;;;;;;;9.50;3.72;;;;;;;15.55;100.00;100200.78;5045076;56;1142744;-73
2023/10/12 09:05:42;;;;;;;7.20;3.50;;;;;;;15.58;100.00;100216.47;5107490;57;1143097;-73
2023/10/12 09:11:02;;;;;;;5.90;3.03;;;;;;;15.52;100.00;100218.38;5114594;56;1140634;-73
2023/10/12 09:16:07;;;;;;;8.90;3.70;;;;;;;15.48;100.00;100225.85;5101727;56;1140895;-74
2023/10/12 09:26:31;;;;;;;5.23;1.10;;;;;;;15.21;100.00;100300.61;4953858;58;1140870;-73
2023/10/12 09:36:55;;;;;;;4.87;1.20;;;;;;;14.22;100.00;100311.69;5053374;57;1240923;-74
2023/10/12 09:42:13;;;;;;;11.28;2.30;;;;;;;13.76;100.00;100307.73;5056313;56;1140918;-73
2023/10/12 09:47:25;;;;;;;6.20;2.17;;;;;;;13.52;100.00;100321.02;5031645;56;1248992;-74
2023/10/12 09:52:46;;;;;;;7.90;1.73;;;;;;;13.45;100.00;100332.34;5102717;55;1141724;-73
2023/10/12 09:57:40;;;;;;;5.23;1.43;;;;;;;13.41;100.00;100338.45;5100872;55;1141644;-73
2023/10/12 10:02:49;;;;;;;5.53;1.37;;;;;;;13.36;100.00;100340.69;5040685;56;1240697;-73
2023/10/12 10:08:04;;;;;;;5.87;1.52;;;;;;;13.37;100.00;100335.73;5039852;56;1241344;-73
2023/10/12 10:13:14;;;;;;;7.70;1.60;;;;;;;13.40;100.00;100338.11;5059658;56;1247447;-73
2023/10/12 10:18:20;;;;;;;8.70;3.77;;;;;;;13.49;100.00;100331.09;5016930;56;1252450;-73
2023/10/12 10:23:26;;;;;;;10.47;3.13;;;;;;;13.66;100.00;100347.64;5045252;56;1141551;-74
2023/10/12 10:28:34;;;;;;;16.47;3.77;;;;;;;13.70;100.00;100347.22;5060826;57;1142835;-73
2023/10/12 10:33:40;;;;;;;11.20;3.20;;;;;;;13.70;100.00;100330.44;5097901;56;1247848;-73
2023/10/12 10:43:59;;;;;;;5.07;1.90;;;;;;;13.79;100.00;100323.41;5118447;56;1257511;-73
2023/10/12 10:49:04;;;;;;;9.00;2.17;;;;;;;13.81;100.00;100330.25;5083346;56;1141001;-73
2023/10/12 10:54:18;;;;;;;5.53;1.80;;;;;;;13.82;100.00;100333.27;5101412;56;1255893;-73
2023/10/12 10:59:18;;;;;;;8.70;2.20;;;;;;;13.86;100.00;100320.04;5103275;56;1185794;-73
2023/10/12 11:15:05;;;;;;;17.67;3.20;;;;;;;13.78;100.00;100325.22;5118863;56;1143026;-73
2023/10/12 11:20:26;;;;;;;13.83;7.30;;;;;;;13.77;100.00;100314.73;5031335;56;1142823;-74
2023/10/12 11:25:26;;;;;;;10.50;1.93;;;;;;;13.76;100.00;100329.84;4965532;57;1142812;-73
2023/10/12 11:30:42;;;;;;;7.63;1.80;;;;;;;13.80;100.00;100337.04;4959829;57;1142805;-74
2023/10/12 11:35:43;;;;;;;11.10;3.37;;;;;;;13.89;100.00;100336.20;5027911;57;1140952;-74
2023/10/12 11:40:53;;;;;;;7.97;1.90;;;;;;;13.94;100.00;100332.09;5014485;57;1227951;-74
2023/10/12 11:46:01;;;;;;;7.95;1.70;;;;;;;13.93;100.00;100334.41;5049609;57;1141020;-74
2023/10/12 11:51:12;;;;;;;4.30;1.30;;;;;;;14.00;100.00;100336.85;5030607;56;1141294;-74
2023/10/12 11:56:22;;;;;;;9.47;1.67;;;;;;;14.00;100.00;100337.34;5035066;57;1140767;-74
2023/10/12 12:01:33;;;;;;;4.50;1.70;;;;;;;14.01;100.00;100336.36;5052169;57;1140933;-73
2023/10/12 12:06:40;;;;;;;5.77;2.70;;;;;;;14.02;100.00;100346.02;5021187;57;1192502;-74
2023/10/12 12:11:47;;;;;;;5.93;1.97;;;;;;;14.05;100.00;100350.53;5022761;57;1140879;-74
2023/10/12 12:16:53;;;;;;;11.68;1.70;;;;;;;14.15;100.00;100353.66;5033071;56;1140852;-74
2023/10/12 12:22:00;;;;;;;6.03;1.85;;;;;;;14.17;100.00;100353.03;5058791;56;1143018;-75
2023/10/12 12:27:05;;;;;;;10.53;2.10;;;;;;;14.09;100.00;100356.40;4988688;57;1203767;-74
2023/10/12 12:32:11;;;;;;;12.77;2.07;;;;;;;14.07;100.00;100354.38;5020882;56;1142958;-73
2023/10/12 12:37:17;;;;;;;10.87;2.90;;;;;;;14.04;100.00;100355.53;5064270;56;1142963;-73
2023/10/12 12:42:23;;;;;;;6.93;1.80;;;;;;;14.08;100.00;100375.50;5125989;56;1143102;-73
2023/10/12 12:47:32;;;;;;;14.27;2.90;;;;;;;14.25;100.00;100375.23;5125775;56;1140822;-73
2023/10/12 12:52:40;;;;;;;7.30;1.43;;;;;;;14.42;100.00;100374.50;5145024;56;1143007;-73
2023/10/12 12:57:47;;;;;;;9.90;1.80;;;;;;;14.49;100.00;100374.77;5099395;56;1144582;-76
2023/10/12 13:02:52;;;;;;;9.88;1.62;;;;;;;14.45;100.00;100372.05;5073437;56;1140754;-73
2023/10/12 13:08:00;;;;;;;11.55;2.40;;;;;;;14.55;100.00;100375.98;5072125;56;1140977;-73
2023/10/12 13:13:06;;;;;;;8.37;1.57;;;;;;;14.61;100.00;100378.06;5033593;57;1143104;-73
2023/10/12 13:18:19;;;;;;;6.87;1.93;;;;;;;14.68;100.00;100377.80;5028868;56;1140950;-74
2023/10/12 13:23:21;;;;;;;8.40;2.10;;;;;;;14.97;100.00;100379.78;4973846;56;1140747;-73
2023/10/12 13:28:27;;;;;;;10.03;1.70;;;;;;;15.04;100.00;100383.53;4881127;58;1140712;-73
2023/10/12 13:33:34;;;;;;;7.63;1.90;;;;;;;15.03;100.00;100379.69;4911362;57;1143074;-74
2023/10/12 13:38:41;;;;;;;7.43;1.80;;;;;;;15.08;100.00;100397.39;5010281;57;1140862;-74
2023/10/12 13:43:48;;;;;;;11.88;2.77;;;;;;;15.11;100.00;100399.77;5040243;56;1140939;-75
2023/10/12 13:48:53;;;;;;;11.60;2.33;;;;;;;15.09;100.00;100396.41;5048619;56;1142990;-73
2023/10/12 13:54:02;;;;;;;6.65;1.80;;;;;;;15.03;100.00;100396.50;5079102;56;1143150;-74
2023/10/12 13:59:09;;;;;;;9.83;1.73;;;;;;;15.14;100.00;100395.44;4960732;58;1140716;-73
2023/10/12 14:09:34;;;;;;;9.17;2.10;;;;;;;15.57;100.00;100397.88;4902465;57;1142931;-73
2023/10/12 14:14:40;;;;;;;9.97;2.60;;;;;;;15.75;100.00;100398.17;4980424;57;1141165;-73
2023/10/12 14:19:45;;;;;;;8.30;2.20;;;;;;;15.87;100.00;100401.95;5034230;57;1140841;-73
2023/10/12 14:24:53;;;;;;;12.40;2.83;;;;;;;15.94;100.00;100402.48;4975540;57;1140853;-73
2023/10/12 14:29:58;;;;;;;9.28;2.55;;;;;;;16.00;100.00;100399.70;5041363;57;1143041;-73
2023/10/12 14:35:05;;;;;;;7.20;2.55;;;;;;;16.07;100.00;100406.91;4933745;57;1141007;-73
2023/10/12 14:40:13;;;;;;;14.30;2.10;;;;;;;16.09;100.00;100413.42;4954558;57;1140834;-73
2023/10/12 14:45:18;;;;;;;13.37;2.43;;;;;;;16.01;100.00;100414.22;5050898;57;1142992;-72
2023/10/12 14:50:24;;;;;;;12.17;2.37;;;;;;;15.79;100.00;100426.22;4918024;58;1142740;-73
2023/10/12 14:55:30;;;;;;;8.83;2.73;;;;;;;15.69;100.00;100432.14;4869440;58;1142812;-76
2023/10/12 15:00:36;;;;;;;14.47;2.17;;;;;;;15.69;100.00;100429.48;5054187;57;1141027;-74
2023/10/12 15:05:42;;;;;;;12.90;2.10;;;;;;;15.51;100.00;100440.61;5011833;57;1142697;-73
2023/10/12 15:10:49;;;;;;;17.10;3.32;;;;;;;15.43;100.00;100448.52;5059764;56;1143410;-74
2023/10/12 15:15:58;;;;;;;11.30;3.75;;;;;;;15.39;100.00;100444.00;5108952;55;1143284;-74
2023/10/12 15:21:02;;;;;;;9.73;2.83;;;;;;;15.23;100.00;100451.83;5114631;56;1143015;-73
2023/10/12 15:26:11;;;;;;;19.23;3.08;;;;;;;15.11;100.00;100448.55;5068053;56;1140926;-75
2023/10/12 15:31:17;;;;;;;26.70;4.63;;;;;;;15.03;100.00;100440.95;5084580;56;1142757;-74
2023/10/12 15:36:23;;;;;;;12.17;4.77;;;;;;;14.93;100.00;100450.83;5072735;56;1143022;-74
2023/10/12 15:41:30;;;;;;;13.17;2.73;;;;;;;14.71;100.00;100454.70;5044979;56;1143122;-74
2023/10/12 15:46:36;;;;;;;13.30;2.90;;;;;;;14.50;100.00;100465.59;5023714;57;1142915;-74
2023/10/12 15:51:42;;;;;;;12.63;3.13;;;;;;;14.32;100.00;100465.47;5073272;56;1143112;-72
2023/10/12 15:56:47;;;;;;;16.30;5.47;;;;;;;14.18;100.00;100463.77;5078368;56;1143145;-75
2023/10/12 16:01:53;;;;;;;9.40;3.60;;;;;;;14.05;100.00;100463.55;5053162;56;1148427;-75
2023/10/12 16:07:05;;;;;;;7.40;3.95;;;;;;;13.86;100.00;100506.13;5027386;56;1141208;-75
2023/10/12 16:12:06;;;;;;;20.85;8.90;;;;;;;13.71;100.00;100480.95;5039424;56;1140855;-74
2023/10/12 16:17:11;;;;;;;16.27;4.77;;;;;;;13.64;100.00;100477.16;4960451;57;1143052;-76
2023/10/12 16:22:21;;;;;;;11.27;3.20;;;;;;;13.53;100.00;100478.14;4979930;57;1142889;-75
2023/10/12 16:27:27;;;;;;;18.40;7.40;;;;;;;13.44;100.00;100479.48;4959452;57;1142660;-76
2023/10/12 16:32:33;;;;;;;8.87;3.33;;;;;;;13.34;100.00;100483.42;4938266;57;1142892;-74
2023/10/12 16:37:39;;;;;;;51.10;22.27;;;;;;;13.26;100.00;100492.59;4818696;58;1140867;-73
2023/10/12 16:42:45;;;;;;;75.57;32.77;;;;;;;13.18;100.00;100496.39;4955965;56;1144992;-74
2023/10/12 16:47:51;;;;;;;18.03;7.47;;;;;;;13.08;100.00;100505.64;4936244;57;1145125;-76
2023/10/12 16:52:57;;;;;;;10.38;3.00;;;;;;;12.98;100.00;100502.97;4977614;57;1142896;-75
2023/10/12 16:58:05;;;;;;;12.55;3.47;;;;;;;12.92;100.00;100522.08;4959360;58;1143100;-73
2023/10/12 17:03:10;;;;;;;10.23;4.73;;;;;;;12.84;100.00;100525.87;5004499;57;1142965;-74
2023/10/12 17:08:16;;;;;;;12.30;2.80;;;;;;;12.77;100.00;100527.88;4981089;57;1143174;-74
2023/10/12 17:13:22;;;;;;;9.37;3.53;;;;;;;12.77;100.00;100535.84;4911611;58;1142697;-73
2023/10/12 17:18:27;;;;;;;8.13;2.70;;;;;;;12.74;100.00;100544.05;5040071;56;1140935;-73
2023/10/12 17:23:33;;;;;;;10.37;3.60;;;;;;;12.70;100.00;100544.80;5071031;56;1140769;-74
2023/10/12 17:28:38;;;;;;;15.17;4.70;;;;;;;12.62;100.00;100545.47;5057136;56;1143007;-73
2023/10/12 17:33:44;;;;;;;40.20;15.17;;;;;;;12.59;100.00;100552.36;5017546;56;1142922;-73
2023/10/12 17:38:52;;;;;;;26.00;11.35;;;;;;;12.54;100.00;100553.72;4961145;56;1145336;-74
2023/10/12 17:43:57;;;;;;;16.75;7.78;;;;;;;12.44;100.00;100562.95;5065673;55;1144814;-74
2023/10/12 17:49:03;;;;;;;9.35;4.20;;;;;;;12.39;100.00;100570.93;5133229;56;1142854;-74
2023/10/12 17:54:10;;;;;;;41.50;15.23;;;;;;;12.39;100.00;100572.26;5085872;56;1140906;-73
2023/10/12 17:59:16;;;;;;;70.93;36.67;;;;;;;12.44;100.00;100574.05;4960328;58;1145019;-73
2023/10/12 18:04:22;;;;;;;45.37;18.73;;;;;;;12.43;100.00;100577.19;5058696;56;1145085;-73
2023/10/12 18:09:28;;;;;;;30.43;12.75;;;;;;;12.43;100.00;100567.90;5048117;56;1145181;-73
2023/10/12 18:14:34;;;;;;;19.30;8.37;;;;;;;12.43;100.00;100576.34;5065427;56;1144830;-73
2023/10/12 18:19:40;;;;;;;24.10;10.80;;;;;;;12.33;100.00;100577.61;5107570;56;1143066;-75
2023/10/12 18:24:45;;;;;;;51.13;34.87;;;;;;;12.26;100.00;100575.95;5052726;56;1144943;-73
2023/10/12 18:29:51;;;;;;;69.47;47.90;;;;;;;12.27;100.00;100572.81;5048750;56;1145121;-74
2023/10/12 18:34:56;;;;;;;56.50;37.23;;;;;;;12.22;100.00;100582.47;5016358;56;1145146;-72
2023/10/12 18:40:03;;;;;;;53.92;37.00;;;;;;;12.18;100.00;100586.84;4983570;57;1145160;-74
2023/10/12 18:45:11;;;;;;;41.77;18.97;;;;;;;12.09;100.00;100596.39;5022638;57;1144841;-73
2023/10/12 18:50:17;;;;;;;44.90;17.80;;;;;;;12.10;100.00;100594.58;5083013;56;1145141;-74
2023/10/12 18:55:23;;;;;;;27.43;12.33;;;;;;;12.08;100.00;100607.11;5072592;56;1145166;-73
2023/10/12 19:00:29;;;;;;;18.83;9.37;;;;;;;12.02;100.00;100603.66;5029125;56;1145184;-74
2023/10/12 19:05:38;;;;;;;28.73;9.83;;;;;;;12.02;100.00;100599.20;5099571;56;1143002;-73
2023/10/12 19:10:43;;;;;;;37.53;16.03;;;;;;;12.16;100.00;100614.81;5044151;56;1142980;-74
2023/10/12 19:15:50;;;;;;;41.00;17.67;;;;;;;12.31;100.00;100610.05;5005080;56;1144996;-73
2023/10/12 19:20:58;;;;;;;40.27;18.43;;;;;;;12.29;100.00;100613.30;4959578;58;1145286;-74
2023/10/12 19:26:05;;;;;;;47.90;24.32;;;;;;;12.21;100.00;100599.37;5017786;57;1144965;-74
2023/10/12 19:31:13;;;;;;;61.35;35.30;;;;;;;12.22;100.00;100613.48;4941673;57;1144845;-73
2023/10/12 19:36:19;;;;;;;54.77;32.90;;;;;;;12.25;100.00;100621.99;5005936;57;1145085;-73
2023/10/12 19:41:26;;;;;;;51.20;30.13;;;;;;;12.28;100.00;100623.07;5074634;57;1145043;-74
2023/10/12 19:46:32;;;;;;;32.37;17.57;;;;;;;12.29;100.00;100617.28;5048184;57;1145240;-74
2023/10/12 19:51:38;;;;;;;33.60;17.33;;;;;;;12.26;100.00;100618.38;5043657;57;1145253;-73
2023/10/12 19:56:44;;;;;;;28.37;15.63;;;;;;;12.20;100.00;100632.64;5064159;57;1144722;-74
2023/10/12 20:01:51;;;;;;;35.73;18.80;;;;;;;12.14;100.00;100639.77;5045367;57;1144804;-74
2023/10/12 20:06:57;;;;;;;39.27;23.97;;;;;;;12.09;100.00;100644.11;5054932;57;1144931;-73
2023/10/12 20:12:04;;;;;;;33.40;16.60;;;;;;;12.03;100.00;100633.18;5074567;57;1144989;-72
2023/10/12 20:17:10;;;;;;;38.60;19.37;;;;;;;12.00;100.00;100633.42;5054228;57;1145059;-74
2023/10/12 20:22:15;;;;;;;38.53;20.27;;;;;;;11.98;100.00;100638.37;5039416;57;1144872;-74
2023/10/12 20:27:23;;;;;;;33.03;18.37;;;;;;;11.94;100.00;100645.36;5062021;57;1145339;-74
2023/10/12 20:32:29;;;;;;;21.87;13.40;;;;;;;11.91;100.00;100642.50;4967660;57;1145442;-74
2023/10/12 20:37:35;;;;;;;30.83;14.50;;;;;;;11.91;100.00;100639.84;5012878;57;1145192;-74
2023/10/12 20:42:40;;;;;;;30.20;14.80;;;;;;;11.88;100.00;100635.27;5017607;56;1145172;-73
2023/10/12 20:47:46;;;;;;;37.67;16.70;;;;;;;11.81;100.00;100638.89;5010458;56;1144846;-73
2023/10/12 20:52:54;;;;;;;50.73;22.37;;;;;;;11.77;100.00;100634.80;5038271;57;1145044;-73
2023/10/12 20:57:59;;;;;;;89.27;42.30;;;;;;;11.71;100.00;100633.11;5037188;57;1145173;-73
2023/10/12 21:03:05;;;;;;;120.42;53.02;;;;;;;11.64;100.00;100638.05;4929026;57;1145162;-72
2023/10/12 21:08:19;;;;;;;164.18;67.72;;;;;;;11.54;100.00;100631.80;5003762;57;1147102;-72
2023/10/12 21:13:19;;;;;;;132.07;55.67;;;;;;;11.49;100.00;100632.64;5021497;57;1147461;-72
2023/10/12 21:18:50;;;;;;;130.07;56.63;;;;;;;11.48;100.00;100635.77;4999378;57;1147405;-72
2023/10/12 21:23:46;;;;;;;111.43;46.93;;;;;;;11.48;100.00;100635.77;5025090;56;1146937;-72
2023/10/12 21:28:47;;;;;;;67.00;28.35;;;;;;;11.44;100.00;100640.13;4972415;58;1147089;-74
2023/10/12 21:33:53;;;;;;;48.87;22.30;;;;;;;11.32;100.00;100640.59;5028042;57;1144965;-72
2023/10/12 21:38:59;;;;;;;36.63;13.23;;;;;;;11.20;100.00;100658.29;5031005;57;1144900;-72
2023/10/12 21:44:10;;;;;;;48.23;22.60;;;;;;;11.07;100.00;100652.75;5031766;57;1145099;-72
2023/10/12 21:49:15;;;;;;;51.67;22.17;;;;;;;11.02;100.00;100669.45;5050915;57;1144912;-72
2023/10/12 21:54:21;;;;;;;60.70;23.87;;;;;;;10.84;100.00;100657.18;5030852;57;1144923;-73
2023/10/12 21:59:27;;;;;;;42.23;18.13;;;;;;;10.66;100.00;100646.19;5030456;57;1144977;-73
2023/10/12 22:04:34;;;;;;;42.87;18.83;;;;;;;10.58;100.00;100644.59;5050972;56;1145131;-72
2023/10/12 22:09:46;;;;;;;39.30;18.10;;;;;;;10.52;100.00;100635.34;5031488;57;1145198;-72
2023/10/12 22:15:00;;;;;;;53.73;20.87;;;;;;;10.45;100.00;100629.29;5068253;55;1144926;-73
2023/10/12 22:20:07;;;;;;;62.70;26.03;;;;;;;10.34;100.00;100626.62;5097935;56;1145229;-72
2023/10/12 22:25:15;;;;;;;55.27;23.93;;;;;;;10.32;100.00;100637.78;5043893;56;1145178;-72
2023/10/12 22:30:20;;;;;;;57.80;19.12;;;;;;;10.28;100.00;100640.28;5022535;56;1144920;-72
2023/10/12 22:35:27;;;;;;;46.73;18.03;;;;;;;10.32;100.00;100647.88;5022362;57;1145038;-72
2023/10/12 22:40:33;;;;;;;50.00;17.80;;;;;;;10.37;100.00;100651.03;5042254;57;1144999;-73
2023/10/12 22:45:40;;;;;;;47.67;17.93;;;;;;;10.48;100.00;100652.86;5022234;57;1145114;-72
2023/10/12 22:50:49;;;;;;;36.60;15.67;;;;;;;10.54;100.00;100647.13;5021448;57;1144866;-72
2023/10/12 22:55:54;;;;;;;38.97;14.90;;;;;;;10.53;100.00;100653.38;5022403;57;1144933;-72
2023/10/12 23:01:00;;;;;;;41.30;13.90;;;;;;;10.48;100.00;100659.00;5042379;57;1145032;-72
2023/10/12 23:06:09;;;;;;;50.17;17.32;;;;;;;10.43;100.00;100665.58;5022505;57;1145263;-72
2023/10/12 23:11:33;;;;;;;30.30;11.97;;;;;;;10.27;100.00;100656.62;5049821;56;1145166;-72
2023/10/12 23:16:33;;;;;;;49.63;16.10;;;;;;;10.27;100.00;100656.62;5101164;57;1144915;-72
2023/10/12 23:21:41;;;;;;;67.73;21.70;;;;;;;10.21;100.00;100667.66;5073564;57;1145046;-72
2023/10/12 23:26:52;;;;;;;54.43;17.07;;;;;;;10.21;100.00;100673.80;5056468;57;1144974;-72
2023/10/12 23:31:58;;;;;;;48.65;15.20;;;;;;;10.22;100.00;100665.39;4995966;57;1145027;-73
2023/10/12 23:37:07;;;;;;;43.42;13.10;;;;;;;10.20;100.00;100673.91;4957267;57;1145013;-72
2023/10/12 23:42:13;;;;;;;33.53;12.07;;;;;;;10.16;100.00;100686.45;5024011;57;1145335;-72
2023/10/12 23:52:57;;;;;;;31.87;11.80;;;;;;;10.19;100.00;100697.33;5054432;57;1145013;-72
2023/10/12 23:58:06;;;;;;;48.40;14.77;;;;;;;10.13;100.00;100694.61;5035439;57;1145090;-72
